createdAt,value
2018-03-25T00:00:54.869Z,965.75
2018-03-25T00:01:54.856Z,965.72
2018-03-25T00:02:54.880Z,965.66
2018-03-25T00:03:54.894Z,965.67
2018-03-25T00:04:54.817Z,965.65
2018-03-25T00:05:54.819Z,965.65
2018-03-25T00:06:54.847Z,965.62
2018-03-25T00:07:54.818Z,965.65
2018-03-25T00:08:54.849Z,965.67
2018-03-25T00:09:54.824Z,965.67
2018-03-25T00:10:54.810Z,965.66
2018-03-25T00:11:54.785Z,965.64
2018-03-25T00:12:54.788Z,965.64
2018-03-25T00:13:54.828Z,965.65
2018-03-25T00:14:54.767Z,965.66
2018-03-25T00:15:54.782Z,965.69
2018-03-25T00:16:54.772Z,965.67
2018-03-25T00:17:54.796Z,965.69
2018-03-25T00:18:54.752Z,965.72
2018-03-25T00:19:54.770Z,965.69
2018-03-25T00:20:54.767Z,965.73
2018-03-25T00:21:54.746Z,965.69
2018-03-25T00:22:54.774Z,965.70
2018-03-25T00:23:54.735Z,965.68
2018-03-25T00:24:54.747Z,965.71
2018-03-25T00:25:54.738Z,965.74
2018-03-25T00:26:54.723Z,965.72
2018-03-25T00:27:54.751Z,965.70
2018-03-25T00:28:54.712Z,965.72
2018-03-25T00:29:54.697Z,965.70
2018-03-25T00:30:54.687Z,965.67
2018-03-25T00:31:54.700Z,965.70
2018-03-25T00:32:54.748Z,965.70
2018-03-25T00:33:54.683Z,965.73
2018-03-25T00:34:54.662Z,965.73
2018-03-25T00:35:54.648Z,965.76
2018-03-25T00:36:54.655Z,965.76
2018-03-25T00:37:54.687Z,965.73
2018-03-25T00:38:54.636Z,965.80
2018-03-25T00:39:54.627Z,965.75
2018-03-25T00:40:54.657Z,965.76
2018-03-25T00:41:54.639Z,965.77
2018-03-25T00:42:54.651Z,965.82
2018-03-25T00:43:54.611Z,965.80
2018-03-25T00:44:54.622Z,965.77
2018-03-25T00:45:54.609Z,965.79
2018-03-25T00:46:54.592Z,965.72
2018-03-25T00:47:54.640Z,965.70
2018-03-25T00:48:54.585Z,965.72
2018-03-25T00:49:54.572Z,965.70
2018-03-25T00:50:54.589Z,965.75
2018-03-25T00:51:54.576Z,965.71
2018-03-25T00:52:54.638Z,965.72
2018-03-25T00:53:54.597Z,965.72
2018-03-25T00:54:54.561Z,965.66
2018-03-25T00:55:54.562Z,965.69
2018-03-25T00:56:54.594Z,965.66
2018-03-25T00:57:54.543Z,965.69
2018-03-25T00:58:54.532Z,965.64
2018-03-25T00:59:54.523Z,965.68
2018-03-25T01:00:54.501Z,965.65
2018-03-25T01:01:54.557Z,965.64
2018-03-25T01:02:54.523Z,965.72
2018-03-25T01:03:54.510Z,965.70
2018-03-25T01:04:54.516Z,965.73
2018-03-25T01:05:54.487Z,965.72
2018-03-25T01:06:54.554Z,965.68
2018-03-25T01:07:54.496Z,965.67
2018-03-25T01:08:54.460Z,965.68
2018-03-25T01:09:54.464Z,965.67
2018-03-25T01:10:54.544Z,965.71
2018-03-25T01:11:54.485Z,965.69
2018-03-25T01:12:54.452Z,965.66
2018-03-25T01:13:54.441Z,965.68
2018-03-25T01:14:54.478Z,965.69
2018-03-25T01:15:54.446Z,965.70
2018-03-25T01:16:54.460Z,965.67
2018-03-25T01:17:54.417Z,965.68
2018-03-25T01:18:54.396Z,965.66
2018-03-25T01:19:54.420Z,965.69
2018-03-25T01:20:54.411Z,965.66
2018-03-25T01:21:54.472Z,965.66
2018-03-25T01:22:54.402Z,965.68
2018-03-25T01:23:54.376Z,965.67
2018-03-25T01:24:54.401Z,965.66
2018-03-25T01:25:54.366Z,965.71
2018-03-25T01:26:54.400Z,965.72
2018-03-25T01:27:57.113Z,965.71
2018-03-25T01:28:54.367Z,965.73
2018-03-25T01:29:54.354Z,965.77
2018-03-25T01:30:54.343Z,965.77
2018-03-25T01:31:54.366Z,965.74
2018-03-25T01:32:54.317Z,965.78
2018-03-25T01:33:54.306Z,965.75
2018-03-25T01:34:54.334Z,965.75
2018-03-25T01:35:54.321Z,965.80
2018-03-25T01:36:54.333Z,965.78
2018-03-25T01:37:54.313Z,965.77
2018-03-25T01:38:54.298Z,965.80
2018-03-25T01:39:54.296Z,965.81
2018-03-25T01:40:54.297Z,965.82
2018-03-25T01:41:54.324Z,965.81
2018-03-25T01:42:54.244Z,965.78
2018-03-25T01:43:54.252Z,965.75
2018-03-25T01:44:54.259Z,965.76
2018-03-25T01:45:54.308Z,965.77
2018-03-25T01:46:54.270Z,965.76
2018-03-25T01:47:54.244Z,965.72
2018-03-25T01:48:54.222Z,965.74
2018-03-25T01:49:54.269Z,965.78
2018-03-25T01:50:54.261Z,965.75
2018-03-25T01:51:54.232Z,965.74
2018-03-25T01:52:54.200Z,965.73
2018-03-25T01:53:54.203Z,965.73
2018-03-25T01:54:54.206Z,965.78
2018-03-25T01:55:54.237Z,965.77
2018-03-25T01:56:54.187Z,965.78
2018-03-25T01:57:54.160Z,965.80
2018-03-25T01:58:54.165Z,965.78
2018-03-25T01:59:54.156Z,965.81
2018-03-25T02:00:54.200Z,965.78
2018-03-25T02:01:54.164Z,965.76
2018-03-25T02:02:54.131Z,965.74
2018-03-25T02:03:54.134Z,965.71
2018-03-25T02:04:54.113Z,965.75
2018-03-25T02:05:54.158Z,965.77
2018-03-25T02:06:54.110Z,965.77
2018-03-25T02:07:54.123Z,965.76
2018-03-25T02:08:54.128Z,965.74
2018-03-25T02:09:54.097Z,965.75
2018-03-25T02:10:54.128Z,965.75
2018-03-25T02:11:54.062Z,965.74
2018-03-25T02:12:54.070Z,965.77
2018-03-25T02:13:54.076Z,965.73
2018-03-25T02:14:54.062Z,965.74
2018-03-25T02:15:54.077Z,965.68
2018-03-25T02:16:54.054Z,965.73
2018-03-25T02:17:54.054Z,965.74
2018-03-25T02:18:54.042Z,965.75
2018-03-25T02:19:54.022Z,965.75
2018-03-25T02:20:54.080Z,965.79
2018-03-25T02:21:53.994Z,965.77
2018-03-25T02:22:54.022Z,965.76
2018-03-25T02:23:54.009Z,965.79
2018-03-25T02:24:53.981Z,965.80
2018-03-25T02:25:54.021Z,965.81
2018-03-25T02:26:54.007Z,965.82
2018-03-25T02:27:53.992Z,965.82
2018-03-25T02:29:25.597Z,965.80
2018-03-25T02:29:53.958Z,965.81
2018-03-25T02:30:54.015Z,965.77
2018-03-25T02:31:53.941Z,965.79
2018-03-25T02:32:53.944Z,965.78
2018-03-25T02:33:53.926Z,965.80
2018-03-25T02:34:53.942Z,965.81
2018-03-25T02:35:53.938Z,965.83
2018-03-25T02:36:53.923Z,965.81
2018-03-25T02:37:53.902Z,965.83
2018-03-25T02:38:53.896Z,965.82
2018-03-25T02:39:53.909Z,965.86
2018-03-25T02:40:53.917Z,965.87
2018-03-25T02:41:53.868Z,965.83
2018-03-25T02:42:53.884Z,965.85
2018-03-25T02:43:53.858Z,965.85
2018-03-25T02:44:53.858Z,965.89
2018-03-25T02:45:53.886Z,965.92
2018-03-25T02:46:53.840Z,965.89
2018-03-25T02:47:53.852Z,965.84
2018-03-25T02:48:53.816Z,965.86
2018-03-25T02:50:18.206Z,965.90
2018-03-25T02:50:53.808Z,965.84
2018-03-25T02:51:53.834Z,965.87
2018-03-25T02:52:53.780Z,965.86
2018-03-25T02:53:53.806Z,965.87
2018-03-25T02:54:53.792Z,965.84
2018-03-25T02:55:53.833Z,965.88
2018-03-25T02:56:53.773Z,965.88
2018-03-25T02:57:53.779Z,965.85
2018-03-25T02:58:53.774Z,965.86
2018-03-25T02:59:53.761Z,965.82
2018-03-25T03:00:53.796Z,965.81
2018-03-25T03:01:53.782Z,965.78
2018-03-25T03:02:53.739Z,965.80
2018-03-25T03:03:53.723Z,965.81
2018-03-25T03:04:53.701Z,965.81
2018-03-25T03:05:53.769Z,965.82
2018-03-25T03:06:53.728Z,965.80
2018-03-25T03:07:53.696Z,965.80
2018-03-25T03:08:53.708Z,965.81
2018-03-25T03:09:53.682Z,965.83
2018-03-25T03:10:53.827Z,965.82
2018-03-25T03:11:53.668Z,965.82
2018-03-25T03:12:53.654Z,965.81
2018-03-25T03:13:53.654Z,965.81
2018-03-25T03:14:53.710Z,965.81
2018-03-25T03:15:53.660Z,965.82
2018-03-25T03:16:53.644Z,965.79
2018-03-25T03:17:53.639Z,965.80
2018-03-25T03:18:53.616Z,965.77
2018-03-25T03:19:53.650Z,965.76
2018-03-25T03:20:53.618Z,965.78
2018-03-25T03:21:53.620Z,965.79
2018-03-25T03:22:53.588Z,965.80
2018-03-25T03:23:53.593Z,965.75
2018-03-25T03:24:53.573Z,965.79
2018-03-25T03:25:53.602Z,965.79
2018-03-25T03:26:53.573Z,965.79
2018-03-25T03:27:53.569Z,965.77
2018-03-25T03:28:53.551Z,965.77
2018-03-25T03:29:53.550Z,965.81
2018-03-25T03:30:53.568Z,965.82
2018-03-25T03:32:15.624Z,965.81
2018-03-25T03:32:53.546Z,965.83
2018-03-25T03:33:53.530Z,965.83
2018-03-25T03:34:53.526Z,965.80
2018-03-25T03:35:53.569Z,965.84
2018-03-25T03:36:53.502Z,965.81
2018-03-25T03:37:53.522Z,965.84
2018-03-25T03:38:53.489Z,965.84
2018-03-25T03:39:53.473Z,965.85
2018-03-25T03:40:53.534Z,965.89
2018-03-25T03:41:53.452Z,965.86
2018-03-25T03:42:53.457Z,965.88
2018-03-25T03:43:53.447Z,965.90
2018-03-25T03:44:53.465Z,965.90
2018-03-25T03:45:53.480Z,965.93
2018-03-25T03:46:53.418Z,965.93
2018-03-25T03:47:53.450Z,965.93
2018-03-25T03:48:53.430Z,965.91
2018-03-25T03:49:53.406Z,965.92
2018-03-25T03:50:53.465Z,965.93
2018-03-25T03:51:53.436Z,965.91
2018-03-25T03:53:09.597Z,965.95
2018-03-25T03:53:53.381Z,965.91
2018-03-25T03:54:53.378Z,965.95
2018-03-25T03:55:53.426Z,965.96
2018-03-25T03:56:53.384Z,965.95
2018-03-25T03:57:53.368Z,965.98
2018-03-25T03:58:53.353Z,965.98
2018-03-25T03:59:53.336Z,965.97
2018-03-25T04:00:53.381Z,965.99
2018-03-25T04:01:53.323Z,965.97
2018-03-25T04:02:53.314Z,965.99
2018-03-25T04:03:53.331Z,965.99
2018-03-25T04:04:53.335Z,966.01
2018-03-25T04:05:53.389Z,965.97
2018-03-25T04:06:53.315Z,965.99
2018-03-25T04:07:53.305Z,966.01
2018-03-25T04:08:53.266Z,965.99
2018-03-25T04:09:53.273Z,965.99
2018-03-25T04:10:53.313Z,966.01
2018-03-25T04:11:53.321Z,965.98
2018-03-25T04:12:53.259Z,965.99
2018-03-25T04:15:29.928Z,965.96
2018-03-25T04:16:29.863Z,965.99
2018-03-25T04:17:29.853Z,965.93
2018-03-25T04:18:29.865Z,965.99
2018-03-25T04:19:54.991Z,966.03
2018-03-25T04:20:39.044Z,966.01
2018-03-25T04:21:29.848Z,965.99
2018-03-25T04:22:29.845Z,966.01
2018-03-25T04:23:29.820Z,965.97
2018-03-25T04:24:29.818Z,965.99
2018-03-25T04:25:29.800Z,966.02
2018-03-25T04:26:29.891Z,965.98
2018-03-25T04:27:29.796Z,966.01
2018-03-25T04:28:29.836Z,966.06
2018-03-25T04:29:29.796Z,966.04
2018-03-25T04:30:29.761Z,966.02
2018-03-25T04:31:29.825Z,966.07
2018-03-25T04:32:29.768Z,966.04
2018-03-25T04:33:29.741Z,966.02
2018-03-25T04:34:29.746Z,966.04
2018-03-25T04:35:29.746Z,966.05
2018-03-25T04:36:29.778Z,966.04
2018-03-25T04:37:29.728Z,966.06
2018-03-25T04:38:29.715Z,966.07
2018-03-25T04:39:29.762Z,966.07
2018-03-25T04:40:29.693Z,966.07
2018-03-25T04:41:29.819Z,966.07
2018-03-25T04:42:29.682Z,966.07
2018-03-25T04:43:29.689Z,966.09
2018-03-25T04:44:29.690Z,966.13
2018-03-25T04:45:29.661Z,966.10
2018-03-25T04:46:29.687Z,966.12
2018-03-25T04:47:29.648Z,966.10
2018-03-25T04:48:29.635Z,966.08
2018-03-25T04:49:29.633Z,966.11
2018-03-25T04:50:29.669Z,966.10
2018-03-25T04:51:29.632Z,966.09
2018-03-25T04:52:29.626Z,966.14
2018-03-25T04:53:46.556Z,966.14
2018-03-25T04:54:29.589Z,966.16
2018-03-25T04:55:29.634Z,966.16
2018-03-25T04:56:29.588Z,966.19
2018-03-25T04:57:29.582Z,966.20
2018-03-25T04:58:43.610Z,966.23
2018-03-25T04:59:29.597Z,966.24
2018-03-25T05:00:43.679Z,966.29
2018-03-25T05:01:29.552Z,966.26
2018-03-25T05:02:29.555Z,966.26
2018-03-25T05:03:29.525Z,966.28
2018-03-25T05:04:29.529Z,966.29
2018-03-25T05:05:29.530Z,966.29
2018-03-25T05:06:29.538Z,966.31
2018-03-25T05:07:29.514Z,966.33
2018-03-25T05:08:29.502Z,966.32
2018-03-25T05:09:29.514Z,966.32
2018-03-25T05:10:29.487Z,966.31
2018-03-25T05:11:29.535Z,966.30
2018-03-25T05:12:29.480Z,966.28
2018-03-25T05:13:29.508Z,966.31
2018-03-25T05:14:29.449Z,966.32
2018-03-25T05:15:29.454Z,966.32
2018-03-25T05:16:29.473Z,966.33
2018-03-25T05:17:29.419Z,966.34
2018-03-25T05:18:29.419Z,966.30
2018-03-25T05:19:29.408Z,966.32
2018-03-25T05:20:29.412Z,966.30
2018-03-25T05:21:30.233Z,966.28
2018-03-25T05:22:29.414Z,966.32
2018-03-25T05:23:29.371Z,966.34
2018-03-25T05:24:29.372Z,966.35
2018-03-25T05:25:29.373Z,966.34
2018-03-25T05:26:29.423Z,966.34
2018-03-25T05:27:29.356Z,966.34
2018-03-25T05:28:29.362Z,966.37
2018-03-25T05:29:29.355Z,966.33
2018-03-25T05:30:29.323Z,966.34
2018-03-25T05:31:29.379Z,966.35
2018-03-25T05:32:29.315Z,966.36
2018-03-25T05:33:29.303Z,966.38
2018-03-25T05:34:29.304Z,966.38
2018-03-25T05:35:29.300Z,966.39
2018-03-25T05:36:29.333Z,966.41
2018-03-25T05:37:29.297Z,966.37
2018-03-25T05:38:29.297Z,966.39
2018-03-25T05:39:29.285Z,966.43
2018-03-25T05:40:29.268Z,966.48
2018-03-25T05:41:30.993Z,966.44
2018-03-25T05:42:29.244Z,966.45
2018-03-25T05:43:30.267Z,966.49
2018-03-25T05:44:29.231Z,966.50
2018-03-25T05:45:30.514Z,966.54
2018-03-25T05:46:29.847Z,966.56
2018-03-25T05:47:30.606Z,966.59
2018-03-25T05:48:29.211Z,966.62
2018-03-25T05:49:29.381Z,966.60
2018-03-25T05:50:29.201Z,966.62
2018-03-25T05:51:31.467Z,966.63
2018-03-25T05:52:29.263Z,966.62
2018-03-25T05:53:30.069Z,966.61
2018-03-25T05:54:29.187Z,966.67
2018-03-25T05:55:29.501Z,966.65
2018-03-25T05:56:29.167Z,966.68
2018-03-25T05:57:29.193Z,966.72
2018-03-25T05:58:29.141Z,966.68
2018-03-25T05:59:29.142Z,966.68
2018-03-25T06:00:29.126Z,966.69
2018-03-25T06:01:29.135Z,966.71
2018-03-25T06:02:29.170Z,966.71
2018-03-25T06:03:29.143Z,966.72
2018-03-25T06:04:30.046Z,966.73
2018-03-25T06:05:29.090Z,966.71
2018-03-25T06:06:31.991Z,966.76
2018-03-25T06:07:29.135Z,966.77
2018-03-25T06:08:30.478Z,966.71
2018-03-25T06:09:29.117Z,966.79
2018-03-25T06:10:30.150Z,966.74
2018-03-25T06:11:29.095Z,966.74
2018-03-25T06:12:31.672Z,966.71
2018-03-25T06:13:30.825Z,966.73
2018-03-25T06:14:31.656Z,966.71
2018-03-25T06:15:30.707Z,966.77
2018-03-25T06:16:32.390Z,966.80
2018-03-25T06:17:29.102Z,966.80
2018-03-25T06:18:29.079Z,966.84
2018-03-25T06:19:29.041Z,966.80
2018-03-25T06:20:29.051Z,966.83
2018-03-25T06:21:29.034Z,966.83
2018-03-25T06:22:29.050Z,966.87
2018-03-25T06:23:29.027Z,966.87
2018-03-25T06:24:29.009Z,966.87
2018-03-25T06:25:29.033Z,966.90
2018-03-25T06:26:29.017Z,966.89
2018-03-25T06:27:29.255Z,966.92
2018-03-25T06:28:29.034Z,966.89
2018-03-25T06:29:29.160Z,966.97
2018-03-25T06:30:28.983Z,966.97
2018-03-25T06:31:29.025Z,967.01
2018-03-25T06:32:29.557Z,967.02
2018-03-25T06:33:28.979Z,967.08
2018-03-25T06:34:28.989Z,967.05
2018-03-25T06:35:29.013Z,967.02
2018-03-25T06:36:28.982Z,967.07
2018-03-25T06:37:28.994Z,967.03
2018-03-25T06:38:28.986Z,967.10
2018-03-25T06:39:28.942Z,967.12
2018-03-25T06:40:28.955Z,967.13
2018-03-25T06:41:28.943Z,967.17
2018-03-25T06:42:28.997Z,967.12
2018-03-25T06:43:30.857Z,967.12
2018-03-25T06:44:28.944Z,967.12
2018-03-25T06:45:28.981Z,967.16
2018-03-25T06:46:28.936Z,967.16
2018-03-25T06:47:28.997Z,967.21
2018-03-25T06:48:28.951Z,967.22
2018-03-25T06:49:28.930Z,967.23
2018-03-25T06:50:28.932Z,967.21
2018-03-25T06:51:28.931Z,967.21
2018-03-25T06:52:28.928Z,967.26
2018-03-25T06:53:28.990Z,967.21
2018-03-25T06:54:28.936Z,967.20
2018-03-25T06:55:28.934Z,967.20
2018-03-25T06:56:28.937Z,967.21
2018-03-25T06:57:28.917Z,967.22
2018-03-25T06:58:28.939Z,967.21
2018-03-25T06:59:28.926Z,967.22
2018-03-25T07:00:29.465Z,967.24
2018-03-25T07:01:28.912Z,967.22
2018-03-25T07:02:28.948Z,967.21
2018-03-25T07:03:28.938Z,967.22
2018-03-25T07:04:28.899Z,967.21
2018-03-25T07:05:28.905Z,967.25
2018-03-25T07:06:28.893Z,967.29
2018-03-25T07:07:28.976Z,967.28
2018-03-25T07:08:29.583Z,967.28
2018-03-25T07:09:28.908Z,967.32
2018-03-25T07:10:28.911Z,967.30
2018-03-25T07:11:28.913Z,967.32
2018-03-25T07:12:28.898Z,967.33
2018-03-25T07:13:28.951Z,967.32
2018-03-25T07:14:28.908Z,967.36
2018-03-25T07:15:28.920Z,967.33
2018-03-25T07:16:28.903Z,967.37
2018-03-25T07:17:28.924Z,967.38
2018-03-25T07:18:28.941Z,967.42
2018-03-25T07:19:28.923Z,967.41
2018-03-25T07:20:28.895Z,967.40
2018-03-25T07:21:28.902Z,967.37
2018-03-25T07:22:29.701Z,967.37
2018-03-25T07:23:28.937Z,967.43
2018-03-25T07:24:28.909Z,967.45
2018-03-25T07:25:29.011Z,967.46
2018-03-25T07:26:28.916Z,967.47
2018-03-25T07:27:29.246Z,967.50
2018-03-25T07:28:28.933Z,967.46
2018-03-25T07:29:28.919Z,967.46
2018-03-25T07:30:29.129Z,967.49
2018-03-25T07:31:28.969Z,967.43
2018-03-25T07:32:29.108Z,967.45
2018-03-25T07:33:28.970Z,967.46
2018-03-25T07:34:30.021Z,967.48
2018-03-25T07:35:31.939Z,967.48
2018-03-25T07:36:28.949Z,967.53
2018-03-25T07:37:29.326Z,967.57
2018-03-25T07:38:28.952Z,967.57
2018-03-25T07:39:28.956Z,967.58
2018-03-25T07:40:29.059Z,967.56
2018-03-25T07:41:28.975Z,967.59
2018-03-25T07:42:29.337Z,967.62
2018-03-25T07:43:29.283Z,967.60
2018-03-25T07:44:28.973Z,967.60
2018-03-25T07:45:28.981Z,967.62
2018-03-25T07:46:29.204Z,967.60
2018-03-25T07:47:29.039Z,967.62
2018-03-25T07:48:29.130Z,967.65
2018-03-25T07:49:29.072Z,967.62
2018-03-25T07:50:28.970Z,967.63
2018-03-25T07:51:28.964Z,967.65
2018-03-25T07:52:29.275Z,967.64
2018-03-25T07:53:29.024Z,967.65
2018-03-25T07:54:29.209Z,967.67
2018-03-25T07:55:29.619Z,967.70
2018-03-25T07:56:29.336Z,967.74
2018-03-25T07:57:30.143Z,967.73
2018-03-25T07:58:29.020Z,967.80
2018-03-25T07:59:29.691Z,967.74
2018-03-25T08:00:29.078Z,967.77
2018-03-25T08:01:29.889Z,967.77
2018-03-25T08:02:29.245Z,967.78
2018-03-25T08:03:29.563Z,967.83
2018-03-25T08:04:29.106Z,967.83
2018-03-25T08:05:29.053Z,967.85
2018-03-25T08:06:29.151Z,967.88
2018-03-25T08:07:29.073Z,967.85
2018-03-25T08:08:29.106Z,967.82
2018-03-25T08:09:29.081Z,967.85
2018-03-25T08:10:29.225Z,967.88
2018-03-25T08:11:29.160Z,967.90
2018-03-25T08:12:29.211Z,967.89
2018-03-25T08:13:29.228Z,967.89
2018-03-25T08:14:29.440Z,967.90
2018-03-25T08:15:30.321Z,967.92
2018-03-25T08:16:29.180Z,967.93
2018-03-25T08:17:30.300Z,967.97
2018-03-25T08:18:29.114Z,967.96
2018-03-25T08:19:29.122Z,967.95
2018-03-25T08:20:29.216Z,967.97
2018-03-25T08:21:29.140Z,967.95
2018-03-25T08:22:29.150Z,968.02
2018-03-25T08:23:29.148Z,967.99
2018-03-25T08:24:29.172Z,968.02
2018-03-25T08:25:29.170Z,968.02
2018-03-25T08:26:29.215Z,968.04
2018-03-25T08:27:29.178Z,968.07
2018-03-25T08:28:29.177Z,968.09
2018-03-25T08:29:29.171Z,968.08
2018-03-25T08:30:29.221Z,968.08
2018-03-25T08:31:29.236Z,968.09
2018-03-25T08:32:29.206Z,968.09
2018-03-25T08:33:29.232Z,968.11
2018-03-25T08:34:29.236Z,968.13
2018-03-25T08:35:29.369Z,968.13
2018-03-25T08:36:29.239Z,968.15
2018-03-25T08:37:29.257Z,968.12
2018-03-25T08:38:29.244Z,968.13
2018-03-25T08:39:29.249Z,968.12
2018-03-25T08:40:29.340Z,968.12
2018-03-25T08:41:29.291Z,968.17
2018-03-25T08:42:29.300Z,968.16
2018-03-25T08:43:29.303Z,968.16
2018-03-25T08:44:29.316Z,968.15
2018-03-25T08:45:29.377Z,968.15
2018-03-25T08:46:30.858Z,968.18
2018-03-25T08:47:29.343Z,968.15
2018-03-25T08:48:29.364Z,968.14
2018-03-25T08:49:29.369Z,968.18
2018-03-25T08:50:29.407Z,968.18
2018-03-25T08:51:29.379Z,968.24
2018-03-25T08:52:29.365Z,968.20
2018-03-25T08:53:29.376Z,968.18
2018-03-25T08:54:29.383Z,968.24
2018-03-25T08:55:37.301Z,968.25
2018-03-25T08:56:29.415Z,968.29
2018-03-25T08:57:29.429Z,968.26
2018-03-25T08:58:29.442Z,968.26
2018-03-25T08:59:29.431Z,968.27
2018-03-25T09:00:29.505Z,968.25
2018-03-25T09:01:29.449Z,968.26
2018-03-25T09:02:29.732Z,968.24
2018-03-25T09:03:29.490Z,968.23
2018-03-25T09:04:29.499Z,968.23
2018-03-25T09:05:29.536Z,968.29
2018-03-25T09:06:29.561Z,968.24
2018-03-25T09:07:29.500Z,968.29
2018-03-25T09:08:29.506Z,968.24
2018-03-25T09:09:29.542Z,968.23
2018-03-25T09:10:29.570Z,968.24
2018-03-25T09:11:29.561Z,968.25
2018-03-25T09:12:29.562Z,968.23
2018-03-25T09:13:29.575Z,968.24
2018-03-25T09:14:29.569Z,968.27
2018-03-25T09:15:29.630Z,968.24
2018-03-25T09:16:29.699Z,968.19
2018-03-25T09:17:29.625Z,968.21
2018-03-25T09:18:29.626Z,968.23
2018-03-25T09:19:29.627Z,968.24
2018-03-25T09:20:29.722Z,968.26
2018-03-25T09:21:29.641Z,968.26
2018-03-25T09:22:29.663Z,968.26
2018-03-25T09:23:29.685Z,968.24
2018-03-25T09:24:29.714Z,968.25
2018-03-25T09:25:29.752Z,968.28
2018-03-25T09:26:29.688Z,968.30
2018-03-25T09:27:29.738Z,968.27
2018-03-25T09:28:29.706Z,968.25
2018-03-25T09:29:29.745Z,968.28
2018-03-25T09:30:29.810Z,968.22
2018-03-25T09:31:29.770Z,968.25
2018-03-25T09:32:29.765Z,968.28
2018-03-25T09:33:29.760Z,968.25
2018-03-25T09:34:29.796Z,968.24
2018-03-25T09:35:29.869Z,968.30
2018-03-25T09:36:29.818Z,968.29
2018-03-25T09:37:29.819Z,968.29
2018-03-25T09:38:29.821Z,968.35
2018-03-25T09:39:29.852Z,968.33
2018-03-25T09:40:29.935Z,968.30
2018-03-25T09:41:29.881Z,968.31
2018-03-25T09:42:29.876Z,968.32
2018-03-25T09:43:29.888Z,968.36
2018-03-25T09:44:29.929Z,968.38
2018-03-25T09:45:29.961Z,968.36
2018-03-25T09:46:29.969Z,968.37
2018-03-25T09:47:29.957Z,968.35
2018-03-25T09:48:29.949Z,968.38
2018-03-25T09:49:30.010Z,968.41
2018-03-25T09:50:30.009Z,968.37
2018-03-25T09:51:30.003Z,968.40
2018-03-25T09:52:30.006Z,968.40
2018-03-25T09:53:30.114Z,968.39
2018-03-25T09:54:30.023Z,968.40
2018-03-25T09:55:30.090Z,968.42
2018-03-25T09:56:30.066Z,968.40
2018-03-25T09:57:30.076Z,968.41
2018-03-25T09:58:30.128Z,968.43
2018-03-25T09:59:30.111Z,968.42
2018-03-25T10:00:30.185Z,968.43
2018-03-25T10:01:30.130Z,968.43
2018-03-25T10:02:30.130Z,968.45
2018-03-25T10:03:30.151Z,968.45
2018-03-25T10:04:30.194Z,968.46
2018-03-25T10:05:30.254Z,968.46
2018-03-25T10:06:30.203Z,968.43
2018-03-25T10:07:30.207Z,968.44
2018-03-25T10:08:30.234Z,968.46
2018-03-25T10:09:30.251Z,968.44
2018-03-25T10:10:30.320Z,968.47
2018-03-25T10:11:30.277Z,968.47
2018-03-25T10:12:30.271Z,968.45
2018-03-25T10:13:30.317Z,968.48
2018-03-25T10:14:30.320Z,968.44
2018-03-25T10:15:30.387Z,968.42
2018-03-25T10:16:30.329Z,968.43
2018-03-25T10:17:30.379Z,968.40
2018-03-25T10:18:30.386Z,968.44
2018-03-25T10:19:30.391Z,968.39
2018-03-25T10:20:30.437Z,968.39
2018-03-25T10:21:30.442Z,968.37
2018-03-25T10:22:30.444Z,968.37
2018-03-25T10:23:30.449Z,968.38
2018-03-25T10:24:30.451Z,968.36
2018-03-25T10:25:30.520Z,968.38
2018-03-25T10:26:30.502Z,968.40
2018-03-25T10:27:30.506Z,968.36
2018-03-25T10:28:30.521Z,968.39
2018-03-25T10:29:30.543Z,968.41
2018-03-25T10:30:30.622Z,968.45
2018-03-25T10:31:30.568Z,968.43
2018-03-25T10:32:30.572Z,968.45
2018-03-25T10:33:30.580Z,968.44
2018-03-25T10:34:30.642Z,968.43
2018-03-25T10:35:30.678Z,968.42
2018-03-25T10:36:30.640Z,968.42
2018-03-25T10:37:30.643Z,968.43
2018-03-25T10:38:30.697Z,968.43
2018-03-25T10:39:30.691Z,968.42
2018-03-25T10:40:30.752Z,968.41
2018-03-25T10:41:30.710Z,968.38
2018-03-25T10:42:30.732Z,968.44
2018-03-25T10:43:30.788Z,968.48
2018-03-25T10:44:30.756Z,968.49
2018-03-25T10:45:30.815Z,968.49
2018-03-25T10:46:30.764Z,968.47
2018-03-25T10:47:30.805Z,968.50
2018-03-25T10:48:30.817Z,968.51
2018-03-25T10:49:30.874Z,968.52
2018-03-25T10:50:30.879Z,968.51
2018-03-25T10:51:30.848Z,968.52
2018-03-25T10:52:30.878Z,968.52
2018-03-25T10:53:30.875Z,968.49
2018-03-25T10:54:30.886Z,968.48
2018-03-25T10:55:30.942Z,968.52
2018-03-25T10:56:30.984Z,968.47
2018-03-25T10:57:30.988Z,968.48
2018-03-25T10:58:30.945Z,968.48
2018-03-25T10:59:30.958Z,968.51
2018-03-25T11:00:31.063Z,968.48
2018-03-25T11:01:31.001Z,968.48
2018-03-25T11:02:31.005Z,968.42
2018-03-25T11:03:31.047Z,968.44
2018-03-25T11:04:31.078Z,968.40
2018-03-25T11:05:31.126Z,968.43
2018-03-25T11:06:31.070Z,968.42
2018-03-25T11:07:31.132Z,968.42
2018-03-25T11:08:31.127Z,968.46
2018-03-25T11:09:31.124Z,968.45
2018-03-25T11:10:31.197Z,968.45
2018-03-25T11:11:31.189Z,968.49
2018-03-25T11:12:31.191Z,968.46
2018-03-25T11:13:31.189Z,968.46
2018-03-25T11:14:31.223Z,968.47
2018-03-25T11:15:31.310Z,968.46
2018-03-25T11:16:31.304Z,968.45
2018-03-25T11:17:31.261Z,968.46
2018-03-25T11:18:31.298Z,968.46
2018-03-25T11:19:32.344Z,968.45
2018-03-25T11:20:31.371Z,968.48
2018-03-25T11:21:31.314Z,968.49
2018-03-25T11:22:31.372Z,968.41
2018-03-25T11:23:31.378Z,968.39
2018-03-25T11:24:31.381Z,968.45
2018-03-25T11:25:31.438Z,968.45
2018-03-25T11:26:31.445Z,968.46
2018-03-25T11:27:31.439Z,968.46
2018-03-25T11:28:31.438Z,968.41
2018-03-25T11:29:31.466Z,968.42
2018-03-25T11:30:32.377Z,968.42
2018-03-25T11:31:31.497Z,968.39
2018-03-25T11:32:31.519Z,968.38
2018-03-25T11:33:31.552Z,968.41
2018-03-25T11:34:31.593Z,968.43
2018-03-25T11:35:31.623Z,968.43
2018-03-25T11:36:31.601Z,968.44
2018-03-25T11:37:31.881Z,968.39
2018-03-25T11:38:31.636Z,968.41
2018-03-25T11:39:31.633Z,968.40
2018-03-25T11:40:31.694Z,968.37
2018-03-25T11:41:31.685Z,968.37
2018-03-25T11:42:31.686Z,968.37
2018-03-25T11:43:31.700Z,968.32
2018-03-25T11:44:31.726Z,968.35
2018-03-25T11:45:31.800Z,968.30
2018-03-25T11:46:31.747Z,968.35
2018-03-25T11:47:31.853Z,968.34
2018-03-25T11:48:31.868Z,968.30
2018-03-25T11:49:31.847Z,968.33
2018-03-25T11:50:31.871Z,968.30
2018-03-25T11:51:32.369Z,968.28
2018-03-25T11:52:31.872Z,968.28
2018-03-25T11:53:31.873Z,968.31
2018-03-25T11:54:31.893Z,968.34
2018-03-25T11:55:32.897Z,968.34
2018-03-25T11:56:32.070Z,968.37
2018-03-25T11:57:31.974Z,968.36
2018-03-25T11:58:31.978Z,968.33
2018-03-25T11:59:31.998Z,968.38
2018-03-25T12:00:33.334Z,968.34
2018-03-25T12:01:32.005Z,968.34
2018-03-25T12:02:32.060Z,968.31
2018-03-25T12:03:32.058Z,968.37
2018-03-25T12:04:32.095Z,968.33
2018-03-25T12:05:32.165Z,968.37
2018-03-25T12:06:32.283Z,968.40
2018-03-25T12:07:32.329Z,968.37
2018-03-25T12:08:32.156Z,968.40
2018-03-25T12:09:32.141Z,968.36
2018-03-25T12:10:34.898Z,968.37
2018-03-25T12:11:32.185Z,968.35
2018-03-25T12:12:32.340Z,968.37
2018-03-25T12:13:32.197Z,968.31
2018-03-25T12:14:32.240Z,968.38
2018-03-25T12:15:32.291Z,968.33
2018-03-25T12:16:32.406Z,968.37
2018-03-25T12:17:32.266Z,968.36
2018-03-25T12:18:32.309Z,968.40
2018-03-25T12:19:32.342Z,968.36
2018-03-25T12:20:32.412Z,968.38
2018-03-25T12:21:32.325Z,968.38
2018-03-25T12:22:32.372Z,968.39
2018-03-25T12:23:32.366Z,968.40
2018-03-25T12:24:32.382Z,968.42
2018-03-25T12:25:32.440Z,968.40
2018-03-25T12:26:32.433Z,968.37
2018-03-25T12:27:32.432Z,968.38
2018-03-25T12:28:32.433Z,968.37
2018-03-25T12:29:32.476Z,968.34
2018-03-25T12:30:32.509Z,968.33